createdAt,value
2018-07-19T00:00:04.949Z,16.10
2018-07-19T00:02:33.573Z,12.10
2018-07-19T00:05:02.202Z,14.50
2018-07-19T00:07:30.815Z,13.23
2018-07-19T00:09:59.529Z,13.20
2018-07-19T00:12:28.133Z,13.13
2018-07-19T00:14:56.749Z,12.10
2018-07-19T00:17:25.381Z,11.50
2018-07-19T00:19:54.017Z,11.63
2018-07-19T00:22:22.645Z,12.60
2018-07-19T00:24:51.294Z,12.17
2018-07-19T00:27:19.530Z,11.60
2018-07-19T00:29:48.144Z,10.80
2018-07-19T00:32:16.737Z,11.27
2018-07-19T00:34:45.322Z,10.83
2018-07-19T00:37:13.933Z,11.13
2018-07-19T00:39:42.578Z,11.43
2018-07-19T00:42:11.291Z,11.70
2018-07-19T00:44:39.880Z,12.63
2018-07-19T00:47:08.518Z,13.50
2018-07-19T00:49:37.107Z,13.80
2018-07-19T00:52:05.749Z,14.40
2018-07-19T00:54:34.348Z,14.00
2018-07-19T00:57:03.058Z,13.90
2018-07-19T00:59:31.649Z,14.43
2018-07-19T01:02:00.275Z,13.37
2018-07-19T01:04:28.877Z,13.50
2018-07-19T01:06:57.513Z,13.53
2018-07-19T01:09:26.105Z,15.37
2018-07-19T01:11:54.693Z,14.57
2018-07-19T01:14:23.322Z,15.70
2018-07-19T01:16:51.569Z,15.70
2018-07-19T01:19:20.231Z,14.40
2018-07-19T01:21:48.846Z,15.43
2018-07-19T01:24:17.585Z,14.63
2018-07-19T01:26:46.178Z,13.07
2018-07-19T01:29:14.786Z,14.47
2018-07-19T01:31:43.415Z,13.93
2018-07-19T01:34:12.021Z,16.60
2018-07-19T01:36:40.630Z,16.40
2018-07-19T01:39:10.366Z,19.33
2018-07-19T01:42:18.060Z,16.93
2018-07-19T01:44:46.671Z,19.53
2018-07-19T01:47:15.260Z,18.23
2018-07-19T01:49:44.801Z,19.03
2018-07-19T01:52:13.885Z,20.93
2018-07-19T01:54:42.549Z,19.67
2018-07-19T01:57:12.381Z,20.23
2018-07-19T01:59:41.717Z,20.10
2018-07-19T02:02:10.497Z,19.70
2018-07-19T02:04:39.061Z,19.60
2018-07-19T02:07:08.051Z,18.00
2018-07-19T02:09:36.700Z,20.40
2018-07-19T02:12:05.393Z,20.87
2018-07-19T02:14:33.989Z,19.97
2018-07-19T02:17:03.049Z,22.20
2018-07-19T02:19:31.703Z,19.27
2018-07-19T02:22:00.340Z,20.40
2018-07-19T02:24:28.944Z,22.77
2018-07-19T02:26:57.564Z,22.13
2018-07-19T02:29:26.157Z,23.20
2018-07-19T02:31:54.776Z,22.47
2018-07-19T02:34:23.377Z,23.47
2018-07-19T02:36:52.012Z,24.17
2018-07-19T02:39:20.665Z,21.23
2018-07-19T02:41:49.335Z,22.23
2018-07-19T02:44:17.946Z,23.97
2018-07-19T02:46:46.525Z,22.37
2018-07-19T02:49:15.153Z,22.37
2018-07-19T02:51:44.289Z,22.87
2018-07-19T02:54:13.203Z,23.60
2018-07-19T02:56:41.912Z,24.93
2018-07-19T02:59:10.545Z,24.53
2018-07-19T03:01:39.124Z,24.87
2018-07-19T03:04:07.808Z,24.50
2018-07-19T03:06:36.455Z,22.23
2018-07-19T03:09:06.842Z,24.87
2018-07-19T03:11:35.774Z,24.97
2018-07-19T03:14:04.432Z,25.13
2018-07-19T03:16:33.047Z,24.93
2018-07-19T03:19:01.685Z,21.10
2018-07-19T03:21:30.276Z,24.13
2018-07-19T03:23:58.888Z,25.93
2018-07-19T03:26:27.521Z,21.37
2018-07-19T03:28:56.093Z,27.23
2018-07-19T03:31:24.705Z,27.10
2018-07-19T03:33:53.284Z,29.00
2018-07-19T03:36:21.900Z,27.73
2018-07-19T03:38:50.505Z,29.47
2018-07-19T03:41:19.201Z,26.87
2018-07-19T03:43:47.781Z,25.57
2018-07-19T03:46:16.385Z,25.43
2018-07-19T03:48:45.110Z,25.60
2018-07-19T03:51:13.801Z,24.90
2018-07-19T03:53:42.417Z,25.23
2018-07-19T03:56:11.057Z,17.87
2018-07-19T03:58:39.665Z,23.43
2018-07-19T04:01:08.269Z,24.37
2018-07-19T04:03:36.885Z,19.53
2018-07-19T04:06:05.588Z,25.13
2018-07-19T04:08:34.214Z,21.77
2018-07-19T04:11:02.785Z,26.90
2018-07-19T04:13:31.388Z,24.20
2018-07-19T04:15:59.977Z,21.63
2018-07-19T04:18:28.651Z,22.80
2018-07-19T04:20:57.345Z,24.60
2018-07-19T04:23:25.990Z,17.53
2018-07-19T04:25:54.610Z,18.03
2018-07-19T04:28:23.217Z,16.83
2018-07-19T04:30:51.800Z,16.87
2018-07-19T04:33:20.413Z,18.77
2018-07-19T04:35:49.001Z,16.17
2018-07-19T04:38:17.654Z,15.27
2018-07-19T04:40:46.306Z,16.83
2018-07-19T04:43:14.980Z,20.93
2018-07-19T04:45:43.637Z,20.73
2018-07-19T04:48:12.318Z,18.70
2018-07-19T04:50:40.553Z,15.60
2018-07-19T04:53:09.186Z,15.20
2018-07-19T04:55:37.833Z,15.30
2018-07-19T04:58:06.561Z,16.50
2018-07-19T05:00:35.228Z,15.10
2018-07-19T05:03:04.101Z,14.83
2018-07-19T05:05:32.719Z,15.10
2018-07-19T05:08:01.345Z,14.20
2018-07-19T05:10:29.988Z,14.70
2018-07-19T05:12:58.646Z,13.30
2018-07-19T05:15:27.285Z,13.47
2018-07-19T05:17:55.916Z,13.00
2018-07-19T05:20:24.542Z,13.70
2018-07-19T05:22:53.231Z,13.53
2018-07-19T05:25:21.860Z,13.30
2018-07-19T05:27:50.503Z,13.40
2018-07-19T05:30:19.153Z,12.43
2018-07-19T05:32:47.782Z,12.47
2018-07-19T05:35:16.404Z,11.97
2018-07-19T05:37:45.056Z,12.80
2018-07-19T05:40:13.683Z,12.57
2018-07-19T05:42:42.369Z,12.90
2018-07-19T05:45:10.973Z,12.43
2018-07-19T05:47:39.573Z,12.80
2018-07-19T05:50:08.217Z,12.07
2018-07-19T05:52:36.834Z,12.60
2018-07-19T05:55:05.525Z,12.57
2018-07-19T05:57:34.096Z,11.87
2018-07-19T06:00:02.791Z,11.87
2018-07-19T06:02:31.408Z,12.17
2018-07-19T06:05:00.072Z,12.47
2018-07-19T06:07:28.687Z,13.23
2018-07-19T06:09:57.325Z,12.80
2018-07-19T06:12:25.925Z,13.00
2018-07-19T06:14:54.552Z,12.13
2018-07-19T06:17:23.221Z,12.20
2018-07-19T06:19:51.936Z,13.93
2018-07-19T06:22:20.554Z,13.90
2018-07-19T06:24:49.193Z,12.47
2018-07-19T06:27:17.828Z,13.47
2018-07-19T06:29:46.434Z,13.93
2018-07-19T06:32:15.056Z,14.10
2018-07-19T06:34:43.669Z,14.83
2018-07-19T06:37:12.296Z,15.10
2018-07-19T06:39:40.982Z,16.40
2018-07-19T06:42:09.658Z,14.73
2018-07-19T06:44:38.301Z,16.90
2018-07-19T06:47:06.948Z,15.70
2018-07-19T06:49:35.522Z,15.17
2018-07-19T06:52:04.233Z,16.50
2018-07-19T06:54:32.858Z,16.77
2018-07-19T06:57:01.563Z,15.97
2018-07-19T06:59:30.174Z,14.30
2018-07-19T07:01:58.767Z,14.17
2018-07-19T07:04:27.397Z,13.87
2018-07-19T07:06:56.001Z,15.10
2018-07-19T07:09:24.613Z,14.40
2018-07-19T07:11:53.214Z,13.80
2018-07-19T07:14:21.941Z,12.83
2018-07-19T07:16:50.564Z,12.60
2018-07-19T07:19:19.233Z,12.60
2018-07-19T07:21:47.857Z,12.20
2018-07-19T07:24:16.596Z,12.63
2018-07-19T07:26:45.225Z,12.57
2018-07-19T07:29:13.925Z,12.70
2018-07-19T07:31:42.851Z,12.03
2018-07-19T07:34:11.488Z,12.20
2018-07-19T07:36:40.097Z,11.53
2018-07-19T07:39:09.869Z,12.20
2018-07-19T07:41:38.612Z,11.43
2018-07-19T07:44:07.288Z,11.87
2018-07-19T07:46:35.874Z,12.17
2018-07-19T07:49:04.575Z,13.07
2018-07-19T07:51:33.211Z,13.90
2018-07-19T07:54:01.831Z,13.47
2018-07-19T07:56:31.433Z,13.93
2018-07-19T07:59:00.015Z,14.07
2018-07-19T08:01:28.645Z,13.70
2018-07-19T08:03:57.290Z,13.23
2018-07-19T08:06:25.966Z,13.33
2018-07-19T08:08:54.599Z,12.80
2018-07-19T08:11:23.172Z,13.17
2018-07-19T08:13:51.829Z,13.30
2018-07-19T08:16:20.442Z,13.37
2018-07-19T08:18:49.138Z,12.50
2018-07-19T08:21:17.807Z,13.87
2018-07-19T08:23:47.467Z,13.97
2018-07-19T08:26:16.172Z,14.13
2018-07-19T08:28:44.838Z,12.70
2018-07-19T08:31:13.474Z,14.07
2018-07-19T08:33:42.090Z,13.70
2018-07-19T08:36:10.697Z,14.20
2018-07-19T08:38:39.321Z,13.13
2018-07-19T08:41:07.929Z,14.23
2018-07-19T08:43:36.565Z,13.90
2018-07-19T08:46:05.287Z,14.10
2018-07-19T08:48:33.874Z,14.43
2018-07-19T08:51:02.546Z,15.27
2018-07-19T08:53:31.149Z,15.20
2018-07-19T08:58:28.448Z,16.63
2018-07-19T09:00:57.145Z,15.67
2018-07-19T09:03:25.817Z,14.40
2018-07-19T09:05:54.429Z,15.53
2018-07-19T09:08:23.072Z,15.47
2018-07-19T09:10:51.685Z,15.80
2018-07-19T09:13:20.289Z,16.62
2018-07-19T09:15:48.925Z,14.93
2018-07-19T09:18:17.525Z,15.10
2018-07-19T09:20:46.251Z,14.70
2018-07-19T09:23:14.918Z,14.25
2018-07-19T09:25:43.552Z,14.10
2018-07-19T09:28:12.189Z,12.65
2018-07-19T09:30:41.549Z,12.70
2018-07-19T09:33:10.172Z,12.55
2018-07-19T09:35:38.776Z,14.33
2018-07-19T09:38:07.400Z,12.70
2018-07-19T09:40:36.081Z,13.03
2018-07-19T09:43:04.816Z,13.43
2018-07-19T09:45:33.490Z,13.62
2018-07-19T09:48:02.186Z,13.43
2018-07-19T09:50:30.800Z,13.13
2018-07-19T09:52:59.428Z,14.00
2018-07-19T09:55:28.013Z,13.88
2018-07-19T09:57:56.642Z,13.90
2018-07-19T10:00:30.558Z,13.45
2018-07-19T10:02:59.196Z,11.83
2018-07-19T10:05:27.804Z,12.82
2018-07-19T10:07:56.473Z,13.08
2018-07-19T10:10:25.082Z,12.80
2018-07-19T10:12:53.946Z,13.62
2018-07-19T10:15:22.599Z,12.45
2018-07-19T10:17:51.273Z,12.03
2018-07-19T10:20:19.549Z,11.28
2018-07-19T10:22:48.184Z,12.58
2018-07-19T10:25:17.594Z,13.35
2018-07-19T10:27:46.230Z,12.63
2018-07-19T10:30:14.872Z,12.78
2018-07-19T10:32:43.507Z,13.20
2018-07-19T10:35:12.126Z,14.35
2018-07-19T10:37:40.773Z,14.05
2018-07-19T10:40:09.362Z,14.15
2018-07-19T10:42:37.969Z,13.60
2018-07-19T10:45:06.703Z,13.93
2018-07-19T10:47:35.324Z,13.20
2018-07-19T10:50:04.030Z,14.25
2018-07-19T10:52:32.621Z,12.50
2018-07-19T10:55:01.235Z,13.03
2018-07-19T10:57:29.880Z,11.60
2018-07-19T10:59:58.435Z,11.08
2018-07-19T11:02:27.045Z,11.53
2018-07-19T11:04:55.613Z,13.45
2018-07-19T11:07:24.213Z,11.48
2018-07-19T11:09:52.831Z,11.63
2018-07-19T11:12:21.451Z,12.30
2018-07-19T11:14:50.053Z,12.40
2018-07-19T11:17:18.651Z,13.48
2018-07-19T11:19:47.235Z,14.23
2018-07-19T11:22:15.830Z,14.80
2018-07-19T11:24:44.454Z,15.23
2018-07-19T11:27:13.027Z,14.87
2018-07-19T11:29:41.645Z,15.03
2018-07-19T11:32:10.224Z,15.15
2018-07-19T11:34:38.825Z,14.03
2018-07-19T11:37:07.452Z,13.43
2018-07-19T11:39:36.058Z,14.23
2018-07-19T11:42:04.655Z,14.35
2018-07-19T11:44:33.281Z,13.78
2018-07-19T11:47:01.871Z,13.10
2018-07-19T11:49:30.144Z,14.07
2018-07-19T11:51:58.706Z,13.80
2018-07-19T11:54:27.321Z,14.85
2018-07-19T11:56:55.917Z,15.45
2018-07-19T11:59:24.550Z,14.93
2018-07-19T12:01:53.195Z,12.70
2018-07-19T12:04:21.808Z,10.98
2018-07-19T12:06:50.393Z,11.10
2018-07-19T12:09:18.976Z,10.50
2018-07-19T12:11:47.615Z,10.98
2018-07-19T12:14:16.195Z,12.43
2018-07-19T12:16:44.813Z,11.78
2018-07-19T12:19:13.413Z,12.00
2018-07-19T12:21:42.153Z,11.70
2018-07-19T12:24:10.772Z,12.28
2018-07-19T12:26:39.437Z,11.28
2018-07-19T12:29:08.033Z,11.83
2018-07-19T12:31:36.626Z,11.75
2018-07-19T12:34:08.320Z,11.90
2018-07-19T12:36:36.945Z,14.30
2018-07-19T12:39:08.657Z,13.90
2018-07-19T12:41:37.290Z,14.25
2018-07-19T12:44:05.870Z,14.45
2018-07-19T12:46:34.497Z,15.03
2018-07-19T12:49:03.103Z,14.20
2018-07-19T12:51:31.756Z,15.05
2018-07-19T12:54:00.353Z,12.28
2018-07-19T12:56:28.985Z,13.30
2018-07-19T12:58:57.864Z,13.45
2018-07-19T13:01:26.425Z,12.68
2018-07-19T13:03:55.096Z,11.80
2018-07-19T13:06:23.733Z,11.78
2018-07-19T13:08:52.549Z,11.90
2018-07-19T13:11:21.125Z,12.30
2018-07-19T13:13:49.443Z,12.30
2018-07-19T13:16:18.631Z,13.10
2018-07-19T13:18:47.297Z,13.62
2018-07-19T13:21:16.197Z,12.03
2018-07-19T13:23:45.162Z,11.80
2018-07-19T13:26:13.801Z,11.48
2018-07-19T13:28:42.431Z,11.18
2018-07-19T13:31:10.649Z,10.60
2018-07-19T13:33:39.233Z,11.22
2018-07-19T13:36:07.953Z,12.10
2018-07-19T13:38:37.416Z,12.37
2018-07-19T13:41:06.013Z,12.73
2018-07-19T13:43:34.686Z,13.40
2018-07-19T13:46:03.324Z,13.40
2018-07-19T13:48:31.907Z,14.10
2018-07-19T13:51:00.564Z,13.55
2018-07-19T13:53:41.078Z,12.13
2018-07-19T13:56:10.142Z,12.03
2018-07-19T13:58:39.216Z,10.45
2018-07-19T14:01:07.829Z,11.38
2018-07-19T14:03:36.412Z,11.90
2018-07-19T14:06:05.118Z,11.70
2018-07-19T14:08:33.685Z,11.35
2018-07-19T14:11:02.282Z,11.43
2018-07-19T14:13:30.946Z,12.50
2018-07-19T14:15:59.532Z,11.68
2018-07-19T14:18:28.221Z,12.03
2018-07-19T14:20:56.823Z,11.88
2018-07-19T14:23:25.438Z,12.23
2018-07-19T14:25:54.010Z,12.63
2018-07-19T14:28:22.593Z,11.93
2018-07-19T14:30:51.191Z,12.95
2018-07-19T14:33:19.805Z,13.30
2018-07-19T14:35:48.386Z,12.78
2018-07-19T14:38:17.070Z,12.93
2018-07-19T14:40:46.018Z,12.47
2018-07-19T14:43:14.633Z,12.53
2018-07-19T14:45:43.213Z,11.53
2018-07-19T14:48:12.090Z,11.60
2018-07-19T14:50:40.662Z,11.35
2018-07-19T14:53:11.404Z,11.03
2018-07-19T14:55:40.196Z,11.80
2018-07-19T14:58:08.921Z,11.70
2018-07-19T15:00:37.557Z,11.80
2018-07-19T15:03:06.161Z,12.13
2018-07-19T15:05:34.790Z,11.70
2018-07-19T15:08:03.416Z,12.25
2018-07-19T15:10:32.025Z,12.13
2018-07-19T15:13:00.692Z,11.73
2018-07-19T15:15:29.349Z,12.20
2018-07-19T15:17:57.934Z,12.47
2018-07-19T15:20:26.525Z,11.85
2018-07-19T15:22:55.145Z,13.28
2018-07-19T15:25:23.790Z,14.25
2018-07-19T15:27:52.455Z,14.18
2018-07-19T15:30:21.873Z,12.98
2018-07-19T15:32:50.729Z,13.43
2018-07-19T15:35:19.413Z,14.10
2018-07-19T15:37:48.049Z,13.48
2018-07-19T15:40:16.702Z,14.25
2018-07-19T15:42:45.286Z,13.28
2018-07-19T15:45:13.924Z,12.75
2018-07-19T15:47:42.532Z,13.75
2018-07-19T15:50:11.135Z,14.50
2018-07-19T15:52:39.745Z,13.85
2018-07-19T15:55:07.983Z,13.00
2018-07-19T15:57:36.589Z,13.55
2018-07-19T16:00:05.974Z,13.53
2018-07-19T16:02:34.617Z,13.72
2018-07-19T16:05:03.385Z,14.03
2018-07-19T16:07:31.953Z,14.47
2018-07-19T16:10:00.543Z,13.50
2018-07-19T16:12:28.804Z,14.10
2018-07-19T16:14:57.505Z,14.68
2018-07-19T16:17:26.138Z,12.63
2018-07-19T16:19:54.879Z,13.55
2018-07-19T16:22:23.545Z,14.07
2018-07-19T16:24:52.239Z,12.60
2018-07-19T16:27:20.861Z,12.00
2018-07-19T16:29:49.465Z,12.03
2018-07-19T16:32:18.082Z,12.60
2018-07-19T16:34:46.689Z,12.20
2018-07-19T16:37:15.277Z,13.05
2018-07-19T16:39:43.893Z,12.23
2018-07-19T16:42:12.504Z,13.00
2018-07-19T16:44:41.092Z,13.85
2018-07-19T16:47:09.697Z,13.48
2018-07-19T16:49:38.305Z,13.43
2018-07-19T16:52:07.021Z,13.48
2018-07-19T16:54:35.785Z,11.90
2018-07-19T16:57:04.469Z,11.93
2018-07-19T16:59:33.104Z,12.30
2018-07-19T17:02:01.701Z,12.85
2018-07-19T17:04:30.282Z,14.73
2018-07-19T17:06:58.905Z,14.28
2018-07-19T17:09:27.486Z,14.95
2018-07-19T17:11:56.134Z,16.50
2018-07-19T17:14:24.710Z,25.68
2018-07-19T17:16:53.365Z,20.15
2018-07-19T17:19:21.965Z,20.30
2018-07-19T17:21:50.542Z,18.87
2018-07-19T17:24:19.174Z,17.92
2018-07-19T17:26:47.749Z,17.98
2018-07-19T17:29:16.349Z,13.30
2018-07-19T17:31:44.921Z,12.65
2018-07-19T17:34:13.710Z,15.65
2018-07-19T17:36:42.268Z,13.88
2018-07-19T17:39:12.287Z,15.53
2018-07-19T17:41:41.594Z,12.98
2018-07-19T17:44:10.204Z,13.60
2018-07-19T17:46:38.865Z,14.15
2018-07-19T17:49:07.591Z,14.93
2018-07-19T17:51:36.308Z,13.53
2018-07-19T17:54:04.941Z,13.70
2018-07-19T17:56:33.532Z,13.40
2018-07-19T17:59:02.110Z,12.58
2018-07-19T18:01:30.774Z,12.80
2018-07-19T18:03:59.368Z,13.48
2018-07-19T18:06:28.063Z,12.53
2018-07-19T18:08:56.671Z,12.23
2018-07-19T18:11:25.289Z,12.03
2018-07-19T18:13:55.466Z,14.43
2018-07-19T18:16:24.329Z,12.28
2018-07-19T18:18:52.977Z,12.18
2018-07-19T18:21:21.625Z,13.68
2018-07-19T18:23:50.304Z,12.58
2018-07-19T18:26:18.917Z,13.10
2018-07-19T18:28:47.505Z,13.85
2018-07-19T18:31:16.185Z,13.55
2018-07-19T18:33:44.849Z,13.13
2018-07-19T18:36:13.538Z,13.45
2018-07-19T18:38:42.233Z,13.60
2018-07-19T18:41:10.858Z,14.18
2018-07-19T18:43:39.472Z,13.98
2018-07-19T18:46:08.042Z,14.73
2018-07-19T18:48:36.687Z,15.28
2018-07-19T18:51:05.273Z,15.20
2018-07-19T18:53:33.866Z,14.87
2018-07-19T18:56:02.454Z,13.50
2018-07-19T18:58:31.066Z,14.33
2018-07-19T19:00:59.727Z,15.97
2018-07-19T19:03:28.321Z,16.93
2018-07-19T19:05:56.939Z,17.00
2018-07-19T19:08:25.566Z,16.37
2018-07-19T19:10:54.137Z,17.67
2018-07-19T19:13:22.733Z,18.53
2018-07-19T19:15:51.337Z,17.13
2018-07-19T19:18:20.356Z,16.30
2018-07-19T19:20:48.954Z,17.50
2018-07-19T19:23:17.612Z,15.67
2018-07-19T19:25:46.231Z,15.63
2018-07-19T19:28:14.815Z,16.33
2018-07-19T19:30:43.449Z,16.90
2018-07-19T19:33:12.062Z,15.53
2018-07-19T19:35:40.693Z,16.87
2018-07-19T19:38:09.585Z,18.10
2018-07-19T19:40:38.318Z,17.87
2018-07-19T19:43:07.102Z,16.50
2018-07-19T19:45:35.817Z,16.80
2018-07-19T19:48:04.616Z,16.53
2018-07-19T19:50:33.263Z,16.20
2018-07-19T19:53:01.853Z,15.77
2018-07-19T19:55:30.456Z,16.23
2018-07-19T19:57:59.061Z,15.77
2018-07-19T20:00:27.645Z,16.17
2018-07-19T20:02:56.313Z,14.90
2018-07-19T20:05:24.903Z,15.33
2018-07-19T20:07:53.514Z,15.70
2018-07-19T20:10:22.093Z,15.23
2018-07-19T20:12:50.785Z,16.00
2018-07-19T20:15:19.389Z,15.67
2018-07-19T20:17:48.005Z,15.57
2018-07-19T20:20:16.626Z,15.40
2018-07-19T20:22:45.241Z,15.43
2018-07-19T20:25:14.181Z,16.13
2018-07-19T20:27:42.831Z,15.60
2018-07-19T20:30:11.426Z,15.50
2018-07-19T20:32:40.033Z,17.00
2018-07-19T20:35:08.615Z,15.70
2018-07-19T20:37:37.290Z,15.63
2018-07-19T20:40:05.880Z,16.17
2018-07-19T20:42:34.477Z,17.70
2018-07-19T20:45:03.080Z,15.60
2018-07-19T20:47:31.674Z,16.10
2018-07-19T20:50:00.274Z,14.40
2018-07-19T20:52:28.837Z,15.47
2018-07-19T20:54:57.496Z,15.47
2018-07-19T20:57:26.117Z,14.67
2018-07-19T20:59:54.769Z,14.57
2018-07-19T21:02:23.336Z,14.83
2018-07-19T21:04:51.950Z,14.80
2018-07-19T21:07:20.733Z,14.73
2018-07-19T21:09:49.342Z,14.10
2018-07-19T21:12:17.929Z,13.90
2018-07-19T21:14:46.509Z,13.60
2018-07-19T21:17:15.177Z,15.03
2018-07-19T21:19:43.741Z,15.77
2018-07-19T21:22:12.361Z,15.40
2018-07-19T21:24:40.953Z,14.80
2018-07-19T21:27:09.552Z,18.17
2018-07-19T21:29:38.120Z,15.03
2018-07-19T21:32:06.793Z,15.50
2018-07-19T21:34:35.414Z,16.13
2018-07-19T21:37:04.066Z,14.73
2018-07-19T21:39:32.659Z,14.47
2018-07-19T21:42:01.238Z,15.20
2018-07-19T21:44:29.806Z,15.80
2018-07-19T21:46:58.383Z,15.77
2018-07-19T21:49:26.952Z,15.30
2018-07-19T21:51:55.581Z,16.17
2018-07-19T21:54:24.168Z,17.03
2018-07-19T21:56:52.733Z,16.90
2018-07-19T21:59:21.343Z,15.90
2018-07-19T22:01:49.905Z,16.10
2018-07-19T22:04:20.277Z,15.87
2018-07-19T22:06:53.841Z,17.17
2018-07-19T22:09:23.649Z,17.00
2018-07-19T22:11:52.672Z,16.70
2018-07-19T22:14:21.278Z,16.83
2018-07-19T22:16:49.888Z,17.93
2018-07-19T22:19:18.497Z,17.27
2018-07-19T22:21:47.053Z,15.90
2018-07-19T22:24:15.666Z,15.63
2018-07-19T22:26:44.297Z,17.20
2018-07-19T22:29:12.861Z,18.47
2018-07-19T22:31:41.482Z,17.43
2018-07-19T22:34:10.078Z,18.00
2018-07-19T22:36:38.661Z,16.80
2018-07-19T22:39:09.955Z,19.50
2018-07-19T22:41:38.652Z,20.30
2018-07-19T22:44:07.296Z,16.63
2018-07-19T22:46:35.992Z,20.73
2018-07-19T22:49:04.565Z,17.93
2018-07-19T22:51:33.157Z,15.93
2018-07-19T22:54:01.739Z,16.67
2018-07-19T22:56:30.363Z,18.73
2018-07-19T22:58:58.952Z,19.33
2018-07-19T23:01:27.605Z,18.27
2018-07-19T23:03:56.187Z,18.97
2018-07-19T23:06:25.395Z,15.70
2018-07-19T23:08:54.030Z,17.07
2018-07-19T23:11:22.620Z,16.23
2018-07-19T23:13:51.209Z,17.40
2018-07-19T23:16:19.781Z,16.37
2018-07-19T23:18:48.382Z,16.87
2018-07-19T23:21:16.953Z,17.37
2018-07-19T23:23:45.565Z,15.60
2018-07-19T23:26:14.138Z,18.93
2018-07-19T23:28:42.822Z,15.87
2018-07-19T23:31:11.456Z,16.47
2018-07-19T23:33:40.110Z,17.43
2018-07-19T23:36:14.829Z,18.57
2018-07-19T23:38:47.924Z,17.13
2018-07-19T23:41:20.694Z,18.73
2018-07-19T23:43:52.924Z,17.07
2018-07-19T23:46:27.114Z,17.30
2018-07-19T23:48:56.351Z,17.73
2018-07-19T23:51:24.948Z,17.70
2018-07-19T23:53:53.513Z,18.83
2018-07-19T23:56:22.092Z,19.20
2018-07-19T23:58:50.670Z,17.30
